sensor_id;sensor_type;location;lat;lon;timestamp;pressure;altitude;pressure_sealevel;temperature;humidity
22653;BME280;11493;43.344;26.226;2022-07-01T00:01:50;99096.72;;;22.01;86.67
22653;BME280;11493;43.344;26.226;2022-07-01T00:04:17;99114.78;;;22.07;86.94
22653;BME280;11493;43.344;26.226;2022-07-01T00:06:45;99117.53;;;22.00;87.93
22653;BME280;11493;43.344;26.226;2022-07-01T00:09:12;99094.28;;;21.85;87.86
22653;BME280;11493;43.344;26.226;2022-07-01T00:11:40;99120.69;;;21.88;88.49
22653;BME280;11493;43.344;26.226;2022-07-01T00:14:07;99105.06;;;21.80;88.28
22653;BME280;11493;43.344;26.226;2022-07-01T00:16:35;99110.63;;;21.73;89.28
22653;BME280;11493;43.344;26.226;2022-07-01T00:19:03;99116.25;;;21.73;89.18
22653;BME280;11493;43.344;26.226;2022-07-01T00:21:32;99099.84;;;21.71;87.86
22653;BME280;11493;43.344;26.226;2022-07-01T00:23:59;99094.63;;;21.66;89.17
22653;BME280;11493;43.344;26.226;2022-07-01T00:26:27;99098.59;;;21.65;89.71
22653;BME280;11493;43.344;26.226;2022-07-01T00:28:55;99104.63;;;21.71;89.30
22653;BME280;11493;43.344;26.226;2022-07-01T00:31:22;99100.66;;;21.75;88.87
22653;BME280;11493;43.344;26.226;2022-07-01T00:33:49;99073.38;;;21.58;89.62
22653;BME280;11493;43.344;26.226;2022-07-01T00:36:17;99106.22;;;21.72;89.15
22653;BME280;11493;43.344;26.226;2022-07-01T00:38:46;99103.81;;;21.67;89.04
22653;BME280;11493;43.344;26.226;2022-07-01T00:41:17;99100.59;;;21.64;89.70
22653;BME280;11493;43.344;26.226;2022-07-01T00:43:44;99106.97;;;21.58;89.97
22653;BME280;11493;43.344;26.226;2022-07-01T00:46:21;99082.56;;;21.44;90.24
22653;BME280;11493;43.344;26.226;2022-07-01T00:48:54;99098.97;;;21.56;91.19
22653;BME280;11493;43.344;26.226;2022-07-01T00:51:23;99100.16;;;21.55;91.31
22653;BME280;11493;43.344;26.226;2022-07-01T00:53:52;99086.16;;;21.41;90.06
22653;BME280;11493;43.344;26.226;2022-07-01T00:56:19;99092.16;;;21.43;89.97
22653;BME280;11493;43.344;26.226;2022-07-01T00:58:47;99096.56;;;21.44;90.05
22653;BME280;11493;43.344;26.226;2022-07-01T01:01:14;99094.56;;;21.45;89.93
22653;BME280;11493;43.344;26.226;2022-07-01T01:03:42;99097.72;;;21.36;90.39
22653;BME280;11493;43.344;26.226;2022-07-01T01:06:10;99103.28;;;21.29;91.06
22653;BME280;11493;43.344;26.226;2022-07-01T01:08:37;99088.34;;;21.11;92.01
22653;BME280;11493;43.344;26.226;2022-07-01T01:11:05;99101.09;;;21.05;92.96
22653;BME280;11493;43.344;26.226;2022-07-01T01:13:33;99098.28;;;21.01;93.78
22653;BME280;11493;43.344;26.226;2022-07-01T01:16:00;99100.72;;;21.06;93.82
22653;BME280;11493;43.344;26.226;2022-07-01T01:18:28;99098.66;;;20.99;93.09
22653;BME280;11493;43.344;26.226;2022-07-01T01:20:55;99097.88;;;21.03;93.66
22653;BME280;11493;43.344;26.226;2022-07-01T01:23:23;99095.88;;;20.99;93.54
22653;BME280;11493;43.344;26.226;2022-07-01T01:25:50;99097.84;;;20.95;94.17
22653;BME280;11493;43.344;26.226;2022-07-01T01:28:18;99103.44;;;20.95;94.29
22653;BME280;11493;43.344;26.226;2022-07-01T01:30:45;99093.84;;;20.93;93.98
22653;BME280;11493;43.344;26.226;2022-07-01T01:33:12;99088.22;;;20.89;94.77
22653;BME280;11493;43.344;26.226;2022-07-01T01:35:39;99096.59;;;20.89;95.12
22653;BME280;11493;43.344;26.226;2022-07-01T01:38:07;99104.22;;;20.92;95.14
22653;BME280;11493;43.344;26.226;2022-07-01T01:40:35;99088.16;;;20.82;95.31
22653;BME280;11493;43.344;26.226;2022-07-01T01:43:02;99102.16;;;20.82;95.80
22653;BME280;11493;43.344;26.226;2022-07-01T01:45:30;99106.56;;;20.83;95.65
22653;BME280;11493;43.344;26.226;2022-07-01T01:47:57;99082.47;;;20.64;95.56
22653;BME280;11493;43.344;26.226;2022-07-01T01:50:24;99096.50;;;20.72;96.39
22653;BME280;11493;43.344;26.226;2022-07-01T01:52:52;99106.47;;;20.69;96.69
22653;BME280;11493;43.344;26.226;2022-07-01T01:55:19;99104.09;;;20.71;96.51
22653;BME280;11493;43.344;26.226;2022-07-01T01:57:46;99102.81;;;20.61;96.79
22653;BME280;11493;43.344;26.226;2022-07-01T02:00:14;99100.34;;;20.53;96.95
22653;BME280;11493;43.344;26.226;2022-07-01T02:02:41;99110.00;;;20.59;97.39
22653;BME280;11493;43.344;26.226;2022-07-01T02:05:11;99115.56;;;20.59;96.71
22653;BME280;11493;43.344;26.226;2022-07-01T02:07:39;99123.19;;;20.62;95.12
22653;BME280;11493;43.344;26.226;2022-07-01T02:10:07;99124.78;;;20.63;94.44
22653;BME280;11493;43.344;26.226;2022-07-01T02:12:36;99117.13;;;20.53;93.77
22653;BME280;11493;43.344;26.226;2022-07-01T02:15:04;99110.97;;;20.37;94.92
22653;BME280;11493;43.344;26.226;2022-07-01T02:17:32;99109.22;;;20.21;96.19
22653;BME280;11493;43.344;26.226;2022-07-01T02:19:59;99096.28;;;20.06;97.12
22653;BME280;11493;43.344;26.226;2022-07-01T02:22:29;99113.97;;;20.17;97.57
22653;BME280;11493;43.344;26.226;2022-07-01T02:24:56;99110.47;;;20.27;97.69
22653;BME280;11493;43.344;26.226;2022-07-01T02:27:24;99118.09;;;20.30;97.42
22653;BME280;11493;43.344;26.226;2022-07-01T02:29:51;99114.03;;;20.24;97.60
22653;BME280;11493;43.344;26.226;2022-07-01T02:32:20;99118.75;;;20.17;98.07
22653;BME280;11493;43.344;26.226;2022-07-01T02:34:48;99111.53;;;20.12;98.25
22653;BME280;11493;43.344;26.226;2022-07-01T02:37:16;99119.47;;;20.10;98.60
22653;BME280;11493;43.344;26.226;2022-07-01T02:39:43;99108.59;;;19.98;99.02
22653;BME280;11493;43.344;26.226;2022-07-01T02:42:11;99124.59;;;20.01;98.87
22653;BME280;11493;43.344;26.226;2022-07-01T02:44:50;99127.34;;;19.97;99.29
22653;BME280;11493;43.344;26.226;2022-07-01T02:47:17;99122.56;;;19.98;98.94
22653;BME280;11493;43.344;26.226;2022-07-01T02:49:44;99135.34;;;19.99;98.34
22653;BME280;11493;43.344;26.226;2022-07-01T02:52:12;99144.56;;;20.03;98.12
22653;BME280;11493;43.344;26.226;2022-07-01T02:54:39;99146.53;;;19.99;98.37
22653;BME280;11493;43.344;26.226;2022-07-01T02:57:07;99138.47;;;19.94;98.44
22653;BME280;11493;43.344;26.226;2022-07-01T02:59:34;99146.94;;;20.01;98.89
22653;BME280;11493;43.344;26.226;2022-07-01T03:02:02;99145.28;;;19.96;99.09
22653;BME280;11493;43.344;26.226;2022-07-01T03:04:30;99149.66;;;19.94;99.50
22653;BME280;11493;43.344;26.226;2022-07-01T03:06:59;99139.63;;;19.89;99.48
22653;BME280;11493;43.344;26.226;2022-07-01T03:09:27;99146.81;;;19.90;99.75
22653;BME280;11493;43.344;26.226;2022-07-01T03:11:54;99150.88;;;19.96;98.87
22653;BME280;11493;43.344;26.226;2022-07-01T03:14:21;99152.16;;;20.02;98.91
22653;BME280;11493;43.344;26.226;2022-07-01T03:16:49;99154.13;;;20.02;98.53
22653;BME280;11493;43.344;26.226;2022-07-01T03:19:17;99154.59;;;20.11;98.03
22653;BME280;11493;43.344;26.226;2022-07-01T03:21:44;99136.19;;;20.03;97.38
22653;BME280;11493;43.344;26.226;2022-07-01T03:24:12;99153.38;;;20.05;97.70
22653;BME280;11493;43.344;26.226;2022-07-01T03:26:39;99145.25;;;19.93;98.30
22653;BME280;11493;43.344;26.226;2022-07-01T03:29:06;99151.25;;;19.95;98.00
22653;BME280;11493;43.344;26.226;2022-07-01T03:31:36;99160.91;;;20.01;97.85
22653;BME280;11493;43.344;26.226;2022-07-01T03:34:04;99152.88;;;19.96;97.19
22653;BME280;11493;43.344;26.226;2022-07-01T03:36:31;99154.56;;;20.04;97.24
22653;BME280;11493;43.344;26.226;2022-07-01T03:38:58;99132.13;;;19.97;97.33
22653;BME280;11493;43.344;26.226;2022-07-01T03:41:28;99157.50;;;20.22;97.01
22653;BME280;11493;43.344;26.226;2022-07-01T03:43:56;99165.13;;;20.25;97.02
22653;BME280;11493;43.344;26.226;2022-07-01T03:46:26;99170.41;;;20.33;96.38
22653;BME280;11493;43.344;26.226;2022-07-01T03:48:58;99146.44;;;20.32;95.51
22653;BME280;11493;43.344;26.226;2022-07-01T03:51:25;99172.53;;;20.44;95.05
22653;BME280;11493;43.344;26.226;2022-07-01T03:53:53;99182.09;;;20.43;94.96
22653;BME280;11493;43.344;26.226;2022-07-01T03:56:43;99184.94;;;20.46;95.57
22653;BME280;11493;43.344;26.226;2022-07-01T03:59:10;99180.16;;;20.47;96.41
22653;BME280;11493;43.344;26.226;2022-07-01T04:01:37;99181.06;;;20.58;96.32
22653;BME280;11493;43.344;26.226;2022-07-01T04:04:04;99167.09;;;20.58;95.73
22653;BME280;11493;43.344;26.226;2022-07-01T04:06:32;99174.03;;;20.75;95.48
22653;BME280;11493;43.344;26.226;2022-07-01T04:09:02;99179.31;;;20.90;95.07
22653;BME280;11493;43.344;26.226;2022-07-01T04:11:33;99176.19;;;20.99;95.26
22653;BME280;11493;43.344;26.226;2022-07-01T04:14:00;99182.66;;;21.10;95.89
22653;BME280;11493;43.344;26.226;2022-07-01T04:16:30;99178.81;;;21.25;94.82
22653;BME280;11493;43.344;26.226;2022-07-01T04:18:58;99187.69;;;21.38;93.80
22653;BME280;11493;43.344;26.226;2022-07-01T04:21:26;99181.38;;;21.52;92.68
22653;BME280;11493;43.344;26.226;2022-07-01T04:24:11;99185.44;;;21.72;91.46
22653;BME280;11493;43.344;26.226;2022-07-01T04:26:44;99184.69;;;21.82;90.84
22653;BME280;11493;43.344;26.226;2022-07-01T04:29:11;99180.72;;;21.90;90.29
22653;BME280;11493;43.344;26.226;2022-07-01T04:31:38;99172.81;;;22.03;89.48
22653;BME280;11493;43.344;26.226;2022-07-01T04:34:07;99162.34;;;22.00;89.02
22653;BME280;11493;43.344;26.226;2022-07-01T04:36:35;99182.47;;;22.23;88.46
22653;BME280;11493;43.344;26.226;2022-07-01T04:39:04;99172.88;;;22.24;87.99
22653;BME280;11493;43.344;26.226;2022-07-01T04:41:32;99191.28;;;22.40;87.73
22653;BME280;11493;43.344;26.226;2022-07-01T04:44:18;99194.53;;;22.56;87.20
22653;BME280;11493;43.344;26.226;2022-07-01T04:46:47;99183.31;;;22.63;86.75
22653;BME280;11493;43.344;26.226;2022-07-01T04:49:14;99188.53;;;22.72;86.12
22653;BME280;11493;43.344;26.226;2022-07-01T04:51:42;99192.59;;;22.81;85.49
22653;BME280;11493;43.344;26.226;2022-07-01T04:54:10;99189.78;;;22.88;85.56
22653;BME280;11493;43.344;26.226;2022-07-01T04:56:37;99190.59;;;22.85;85.82
22653;BME280;11493;43.344;26.226;2022-07-01T04:59:11;99193.00;;;22.94;86.07
22653;BME280;11493;43.344;26.226;2022-07-01T05:01:42;99179.34;;;22.89;85.71
22653;BME280;11493;43.344;26.226;2022-07-01T05:04:18;99187.75;;;23.03;85.51
22653;BME280;11493;43.344;26.226;2022-07-01T05:12:13;99174.50;;;23.21;85.82
22653;BME280;11493;43.344;26.226;2022-07-01T05:14:40;99177.31;;;23.25;85.84
22653;BME280;11493;43.344;26.226;2022-07-01T05:17:08;99180.09;;;23.39;85.32
22653;BME280;11493;43.344;26.226;2022-07-01T05:19:35;99200.13;;;23.59;85.00
22653;BME280;11493;43.344;26.226;2022-07-01T05:22:21;99199.22;;;23.80;84.28
22653;BME280;11493;43.344;26.226;2022-07-01T05:24:48;99183.19;;;23.80;84.78
22653;BME280;11493;43.344;26.226;2022-07-01T05:27:16;99195.97;;;23.92;86.13
22653;BME280;11493;43.344;26.226;2022-07-01T05:29:43;99196.31;;;24.08;85.90
22653;BME280;11493;43.344;26.226;2022-07-01T05:32:10;99183.00;;;24.19;86.20
22653;BME280;11493;43.344;26.226;2022-07-01T05:34:38;99206.59;;;24.47;86.09
22653;BME280;11493;43.344;26.226;2022-07-01T05:37:08;99201.28;;;24.56;84.05
22653;BME280;11493;43.344;26.226;2022-07-01T05:39:35;99202.38;;;24.69;83.22
22653;BME280;11493;43.344;26.226;2022-07-01T05:42:10;99213.56;;;24.80;82.28
22653;BME280;11493;43.344;26.226;2022-07-01T05:44:37;99212.31;;;24.84;81.94
22653;BME280;11493;43.344;26.226;2022-07-01T05:47:05;99215.50;;;24.90;81.44
22653;BME280;11493;43.344;26.226;2022-07-01T05:49:33;99226.69;;;25.04;80.33
22653;BME280;11493;43.344;26.226;2022-07-01T05:52:00;99233.81;;;25.16;79.16
22653;BME280;11493;43.344;26.226;2022-07-01T05:54:28;99228.59;;;25.18;78.36
22653;BME280;11493;43.344;26.226;2022-07-01T05:56:55;99231.34;;;25.25;77.79
22653;BME280;11493;43.344;26.226;2022-07-01T05:59:22;99242.88;;;25.34;77.40
22653;BME280;11493;43.344;26.226;2022-07-01T06:01:50;99236.41;;;25.41;77.14
22653;BME280;11493;43.344;26.226;2022-07-01T06:04:17;99243.19;;;25.47;77.08
22653;BME280;11493;43.344;26.226;2022-07-01T06:06:45;99249.84;;;25.64;77.50
22653;BME280;11493;43.344;26.226;2022-07-01T06:09:12;99227.69;;;25.69;76.91
22653;BME280;11493;43.344;26.226;2022-07-01T06:11:39;99241.72;;;26.07;76.82
22653;BME280;11493;43.344;26.226;2022-07-01T06:14:07;99222.97;;;26.24;73.64
22653;BME280;11493;43.344;26.226;2022-07-01T06:16:35;99238.84;;;26.44;74.48
22653;BME280;11493;43.344;26.226;2022-07-01T06:19:04;99237.38;;;26.63;75.09
22653;BME280;11493;43.344;26.226;2022-07-01T06:21:32;99230.16;;;26.85;71.76
22653;BME280;11493;43.344;26.226;2022-07-01T06:23:59;99231.72;;;27.17;70.54
22653;BME280;11493;43.344;26.226;2022-07-01T06:26:26;99215.63;;;27.37;68.91
22653;BME280;11493;43.344;26.226;2022-07-01T06:28:54;99222.94;;;27.55;68.72
22653;BME280;11493;43.344;26.226;2022-07-01T06:31:21;99222.16;;;27.54;68.92
22653;BME280;11493;43.344;26.226;2022-07-01T06:33:51;99221.56;;;27.66;69.29
22653;BME280;11493;43.344;26.226;2022-07-01T06:36:18;99220.56;;;27.53;69.29
22653;BME280;11493;43.344;26.226;2022-07-01T06:38:46;99230.47;;;27.65;69.40
22653;BME280;11493;43.344;26.226;2022-07-01T06:41:13;99221.84;;;27.72;68.96
22653;BME280;11493;43.344;26.226;2022-07-01T06:44:00;99221.94;;;27.88;67.83
22653;BME280;11493;43.344;26.226;2022-07-01T06:46:28;99234.69;;;27.96;67.06
22653;BME280;11493;43.344;26.226;2022-07-01T06:48:55;99229.47;;;28.14;65.32
22653;BME280;11493;43.344;26.226;2022-07-01T06:51:22;99224.25;;;28.33;64.36
22653;BME280;11493;43.344;26.226;2022-07-01T06:53:50;99199.06;;;28.38;64.15
22653;BME280;11493;43.344;26.226;2022-07-01T06:56:18;99214.56;;;28.50;62.87
22653;BME280;11493;43.344;26.226;2022-07-01T06:58:45;99217.94;;;28.61;62.41
22653;BME280;11493;43.344;26.226;2022-07-01T07:01:13;99213.09;;;28.62;63.25
22653;BME280;11493;43.344;26.226;2022-07-01T07:03:40;99203.63;;;28.68;62.80
22653;BME280;11493;43.344;26.226;2022-07-01T07:06:08;99200.00;;;28.68;62.63
22653;BME280;11493;43.344;26.226;2022-07-01T07:08:35;99201.06;;;28.74;62.63
22653;BME280;11493;43.344;26.226;2022-07-01T07:11:02;99203.91;;;28.74;63.12
22653;BME280;11493;43.344;26.226;2022-07-01T07:13:30;99192.31;;;28.68;63.21
22653;BME280;11493;43.344;26.226;2022-07-01T07:15:57;99191.94;;;28.66;63.40
22653;BME280;11493;43.344;26.226;2022-07-01T07:18:25;99208.00;;;28.89;64.45
22653;BME280;11493;43.344;26.226;2022-07-01T07:20:52;99207.19;;;29.05;62.11
22653;BME280;11493;43.344;26.226;2022-07-01T07:23:26;99211.00;;;29.15;61.58
22653;BME280;11493;43.344;26.226;2022-07-01T07:25:53;99209.50;;;29.26;60.87
22653;BME280;11493;43.344;26.226;2022-07-01T07:28:21;99214.38;;;29.42;60.38
22653;BME280;11493;43.344;26.226;2022-07-01T07:30:48;99190.63;;;29.52;60.26
22653;BME280;11493;43.344;26.226;2022-07-01T07:33:15;99211.56;;;29.71;60.32
22653;BME280;11493;43.344;26.226;2022-07-01T07:35:42;99203.72;;;29.75;60.52
22653;BME280;11493;43.344;26.226;2022-07-01T07:38:10;99210.78;;;29.83;59.68
22653;BME280;11493;43.344;26.226;2022-07-01T07:40:38;99211.28;;;29.94;58.72
22653;BME280;11493;43.344;26.226;2022-07-01T07:43:06;99216.59;;;30.08;59.33
22653;BME280;11493;43.344;26.226;2022-07-01T07:45:34;99216.28;;;30.19;57.83
22653;BME280;11493;43.344;26.226;2022-07-01T07:48:02;99212.88;;;30.24;57.71
22653;BME280;11493;43.344;26.226;2022-07-01T07:50:30;99223.75;;;30.13;56.61
22653;BME280;11493;43.344;26.226;2022-07-01T07:52:58;99234.19;;;30.16;56.90
22653;BME280;11493;43.344;26.226;2022-07-01T07:55:25;99224.66;;;30.10;56.49
22653;BME280;11493;43.344;26.226;2022-07-01T07:57:55;99224.53;;;30.14;56.66
22653;BME280;11493;43.344;26.226;2022-07-01T08:00:22;99225.94;;;30.22;56.02
22653;BME280;11493;43.344;26.226;2022-07-01T08:02:49;99228.91;;;30.31;55.06
22653;BME280;11493;43.344;26.226;2022-07-01T08:05:17;99235.94;;;30.39;55.23
22653;BME280;11493;43.344;26.226;2022-07-01T08:07:44;99230.03;;;30.46;54.28
22653;BME280;11493;43.344;26.226;2022-07-01T08:10:12;99221.06;;;30.48;55.03
22653;BME280;11493;43.344;26.226;2022-07-01T08:12:41;99235.66;;;30.62;55.12
22653;BME280;11493;43.344;26.226;2022-07-01T08:15:08;99238.38;;;30.66;54.99
22653;BME280;11493;43.344;26.226;2022-07-01T08:17:36;99234.06;;;30.74;54.20
22653;BME280;11493;43.344;26.226;2022-07-01T08:20:03;99235.88;;;30.81;52.91
22653;BME280;11493;43.344;26.226;2022-07-01T08:22:31;99228.63;;;30.80;52.35
22653;BME280;11493;43.344;26.226;2022-07-01T08:24:58;99210.44;;;30.77;53.91
22653;BME280;11493;43.344;26.226;2022-07-01T08:27:25;99224.63;;;30.90;55.81
22653;BME280;11493;43.344;26.226;2022-07-01T08:29:52;99231.34;;;30.83;53.54
22653;BME280;11493;43.344;26.226;2022-07-01T08:32:20;99230.78;;;30.76;52.42
22653;BME280;11493;43.344;26.226;2022-07-01T08:34:49;99225.78;;;30.80;52.04
22653;BME280;11493;43.344;26.226;2022-07-01T08:37:16;99229.50;;;30.64;52.00
22653;BME280;11493;43.344;26.226;2022-07-01T08:39:43;99220.59;;;30.49;52.80
22653;BME280;11493;43.344;26.226;2022-07-01T08:42:10;99213.94;;;30.43;53.22
22653;BME280;11493;43.344;26.226;2022-07-01T08:44:38;99210.16;;;30.46;54.03
22653;BME280;11493;43.344;26.226;2022-07-01T08:47:11;99216.69;;;30.59;53.32
22653;BME280;11493;43.344;26.226;2022-07-01T08:49:39;99217.69;;;30.65;52.77
22653;BME280;11493;43.344;26.226;2022-07-01T08:52:07;99231.78;;;30.69;52.60
22653;BME280;11493;43.344;26.226;2022-07-01T08:54:36;99234.53;;;30.72;53.88
22653;BME280;11493;43.344;26.226;2022-07-01T08:57:06;99227.81;;;30.66;53.79
22653;BME280;11493;43.344;26.226;2022-07-01T08:59:34;99232.81;;;30.62;52.97
22653;BME280;11493;43.344;26.226;2022-07-01T09:02:04;99233.44;;;30.54;56.07
22653;BME280;11493;43.344;26.226;2022-07-01T09:04:32;99226.66;;;30.38;55.92
22653;BME280;11493;43.344;26.226;2022-07-01T09:07:06;99230.84;;;30.47;57.43
22653;BME280;11493;43.344;26.226;2022-07-01T09:09:36;99233.59;;;30.63;57.66
22653;BME280;11493;43.344;26.226;2022-07-01T09:12:04;99233.84;;;30.81;57.00
22653;BME280;11493;43.344;26.226;2022-07-01T09:14:34;99231.13;;;30.90;58.79
22653;BME280;11493;43.344;26.226;2022-07-01T09:17:04;99233.03;;;31.06;58.22
22653;BME280;11493;43.344;26.226;2022-07-01T09:19:35;99237.59;;;31.16;56.55
22653;BME280;11493;43.344;26.226;2022-07-01T09:22:10;99240.28;;;31.32;55.22
22653;BME280;11493;43.344;26.226;2022-07-01T09:24:39;99230.84;;;31.35;52.17
22653;BME280;11493;43.344;26.226;2022-07-01T09:27:11;99228.97;;;31.54;50.93
22653;BME280;11493;43.344;26.226;2022-07-01T09:29:46;99228.38;;;31.72;50.50
22653;BME280;11493;43.344;26.226;2022-07-01T09:32:22;99232.88;;;31.82;51.93
22653;BME280;11493;43.344;26.226;2022-07-01T09:34:51;99220.91;;;31.87;50.56
22653;BME280;11493;43.344;26.226;2022-07-01T09:37:24;99221.41;;;31.95;49.88
22653;BME280;11493;43.344;26.226;2022-07-01T09:39:54;99223.06;;;32.05;49.44
22653;BME280;11493;43.344;26.226;2022-07-01T09:42:23;99222.81;;;32.12;47.47
22653;BME280;11493;43.344;26.226;2022-07-01T09:45:10;99223.66;;;32.22;47.20
22653;BME280;11493;43.344;26.226;2022-07-01T09:47:42;99214.47;;;32.18;50.66
22653;BME280;11493;43.344;26.226;2022-07-01T09:50:12;99217.31;;;32.18;47.95
22653;BME280;11493;43.344;26.226;2022-07-01T09:52:39;99221.38;;;32.29;49.67
22653;BME280;11493;43.344;26.226;2022-07-01T09:55:07;99200.19;;;32.30;48.42
22653;BME280;11493;43.344;26.226;2022-07-01T09:57:36;99210.88;;;32.48;48.28
22653;BME280;11493;43.344;26.226;2022-07-01T10:00:04;99196.16;;;32.50;49.16
22653;BME280;11493;43.344;26.226;2022-07-01T10:02:33;99203.97;;;32.58;49.83
22653;BME280;11493;43.344;26.226;2022-07-01T10:05:08;99202.34;;;32.48;48.30
22653;BME280;11493;43.344;26.226;2022-07-01T10:07:45;99183.94;;;32.40;50.07
22653;BME280;11493;43.344;26.226;2022-07-01T10:13:06;99187.09;;;31.89;51.03
22653;BME280;11493;43.344;26.226;2022-07-01T10:15:34;99180.00;;;31.72;50.30
22653;BME280;11493;43.344;26.226;2022-07-01T10:18:02;99175.06;;;31.85;50.20
22653;BME280;11493;43.344;26.226;2022-07-01T10:20:30;99173.44;;;32.06;49.05
22653;BME280;11493;43.344;26.226;2022-07-01T10:23:04;99177.53;;;32.27;50.51
22653;BME280;11493;43.344;26.226;2022-07-01T10:25:52;99184.50;;;32.26;50.25
22653;BME280;11493;43.344;26.226;2022-07-01T10:41:38;99182.16;;;32.33;49.83
22653;BME280;11493;43.344;26.226;2022-07-01T10:44:12;99186.66;;;32.44;50.75
22653;BME280;11493;43.344;26.226;2022-07-01T10:49:16;99185.53;;;32.41;46.39
22653;BME280;11493;43.344;26.226;2022-07-01T10:51:50;99183.38;;;32.23;49.37
22653;BME280;11493;43.344;26.226;2022-07-01T10:59:46;99165.47;;;32.01;49.72
22653;BME280;11493;43.344;26.226;2022-07-01T11:02:36;99175.41;;;31.96;49.61
22653;BME280;11493;43.344;26.226;2022-07-01T11:05:09;99148.19;;;31.86;50.89
22653;BME280;11493;43.344;26.226;2022-07-01T11:07:42;99158.50;;;31.93;50.62
22653;BME280;11493;43.344;26.226;2022-07-01T11:10:13;99159.44;;;32.21;48.70
22653;BME280;11493;43.344;26.226;2022-07-01T11:12:43;99141.72;;;32.48;47.03
22653;BME280;11493;43.344;26.226;2022-07-01T11:15:11;99161.88;;;32.62;47.92
22653;BME280;11493;43.344;26.226;2022-07-01T11:17:45;99164.50;;;32.48;48.17
22653;BME280;11493;43.344;26.226;2022-07-01T11:20:13;99152.56;;;32.31;49.63
22653;BME280;11493;43.344;26.226;2022-07-01T11:22:45;99164.47;;;32.17;50.46
22653;BME280;11493;43.344;26.226;2022-07-01T11:25:13;99155.81;;;31.98;51.60
22653;BME280;11493;43.344;26.226;2022-07-01T11:27:45;99137.56;;;31.65;47.61
22653;BME280;11493;43.344;26.226;2022-07-01T11:30:14;99171.41;;;31.85;46.71
22653;BME280;11493;43.344;26.226;2022-07-01T11:32:52;99164.59;;;31.82;46.58
22653;BME280;11493;43.344;26.226;2022-07-01T11:35:23;99151.88;;;31.74;47.24
22653;BME280;11493;43.344;26.226;2022-07-01T11:38:12;99153.03;;;31.64;47.12
22653;BME280;11493;43.344;26.226;2022-07-01T11:41:03;99156.69;;;31.64;50.64
22653;BME280;11493;43.344;26.226;2022-07-01T11:43:33;99146.91;;;31.65;51.45
22653;BME280;11493;43.344;26.226;2022-07-01T11:46:04;99145.88;;;31.72;52.18
22653;BME280;11493;43.344;26.226;2022-07-01T11:48:36;99143.94;;;31.69;52.40
22653;BME280;11493;43.344;26.226;2022-07-01T11:51:15;99128.13;;;31.68;51.52
22653;BME280;11493;43.344;26.226;2022-07-01T11:53:45;99132.97;;;31.80;51.93
22653;BME280;11493;43.344;26.226;2022-07-01T11:56:13;99126.88;;;31.69;52.47
22653;BME280;11493;43.344;26.226;2022-07-01T11:58:45;99134.97;;;31.58;52.91
22653;BME280;11493;43.344;26.226;2022-07-01T12:01:28;99134.28;;;31.32;52.83
22653;BME280;11493;43.344;26.226;2022-07-01T12:04:01;99119.81;;;31.17;53.98
22653;BME280;11493;43.344;26.226;2022-07-01T12:06:30;99134.84;;;31.40;54.61
22653;BME280;11493;43.344;26.226;2022-07-01T12:08:58;99125.66;;;31.57;54.64
22653;BME280;11493;43.344;26.226;2022-07-01T12:11:26;99116.28;;;31.69;53.59
22653;BME280;11493;43.344;26.226;2022-07-01T12:13:55;99131.63;;;31.94;54.00
22653;BME280;11493;43.344;26.226;2022-07-01T12:16:24;99136.09;;;32.04;52.94
22653;BME280;11493;43.344;26.226;2022-07-01T12:19:00;99134.56;;;31.81;53.04
22653;BME280;11493;43.344;26.226;2022-07-01T12:21:29;99118.59;;;31.62;54.70
22653;BME280;11493;43.344;26.226;2022-07-01T12:24:11;99131.59;;;31.50;54.20
22653;BME280;11493;43.344;26.226;2022-07-01T12:29:29;99157.56;;;31.05;56.63
22653;BME280;11493;43.344;26.226;2022-07-01T12:32:05;99167.59;;;30.84;58.73
22653;BME280;11493;43.344;26.226;2022-07-01T12:37:11;99201.75;;;30.55;57.17
22653;BME280;11493;43.344;26.226;2022-07-01T12:44:51;99214.44;;;29.55;57.17
22653;BME280;11493;43.344;26.226;2022-07-01T12:47:35;99207.53;;;29.23;58.40
22653;BME280;11493;43.344;26.226;2022-07-01T12:52:55;99193.94;;;27.94;67.11
22653;BME280;11493;43.344;26.226;2022-07-01T12:55:24;99182.75;;;27.47;70.03
22653;BME280;11493;43.344;26.226;2022-07-01T12:57:54;99185.22;;;27.22;72.36
22653;BME280;11493;43.344;26.226;2022-07-01T13:00:23;99175.72;;;27.12;73.45
22653;BME280;11493;43.344;26.226;2022-07-01T13:02:55;99163.75;;;27.04;77.80
22653;BME280;11493;43.344;26.226;2022-07-01T13:05:23;99146.50;;;26.99;79.60
22653;BME280;11493;43.344;26.226;2022-07-01T13:07:51;99147.09;;;27.10;80.75
22653;BME280;11493;43.344;26.226;2022-07-01T13:10:19;99144.88;;;27.21;80.67
22653;BME280;11493;43.344;26.226;2022-07-01T13:12:46;99149.09;;;27.33;83.65
22653;BME280;11493;43.344;26.226;2022-07-01T13:15:15;99155.19;;;27.31;87.67
22653;BME280;11493;43.344;26.226;2022-07-01T13:17:44;99121.69;;;27.10;87.51
22653;BME280;11493;43.344;26.226;2022-07-01T13:20:13;99150.41;;;27.28;88.73
22653;BME280;11493;43.344;26.226;2022-07-01T13:22:40;99146.16;;;27.40;88.97
22653;BME280;11493;43.344;26.226;2022-07-01T13:25:08;99151.06;;;27.56;87.78
22653;BME280;11493;43.344;26.226;2022-07-01T13:27:37;99153.78;;;27.63;89.01
22653;BME280;11493;43.344;26.226;2022-07-01T13:30:06;99146.91;;;27.64;86.95
22653;BME280;11493;43.344;26.226;2022-07-01T13:32:34;99152.13;;;27.65;87.86
22653;BME280;11493;43.344;26.226;2022-07-01T13:35:02;99142.47;;;27.63;88.92
22653;BME280;11493;43.344;26.226;2022-07-01T13:37:30;99148.78;;;27.70;90.56
22653;BME280;11493;43.344;26.226;2022-07-01T13:39:57;99143.84;;;27.74;88.03
22653;BME280;11493;43.344;26.226;2022-07-01T13:42:25;99133.63;;;27.80;87.86
22653;BME280;11493;43.344;26.226;2022-07-01T13:44:52;99141.88;;;27.91;87.70